Florence, Mississippi
Current Conditions -  °F | °C
As of 5:54 PM on Monday 24 Nov 2014 (Local Time) from KJAN Reporting Station
Clear Clear  
Wind Chill:   Ceiling: Unl
Heat Index:   Visibility: 10mi
Dew Point:   Wind: 5mph
Humidity: 64%   Direction: 340°NNW
Pressure: 30.01"   Gusts: NA
Location:  32.15°N, 90.13°W
Report Text: KJAN 242354Z 34004KT 10SM CLR 09/03 A3001 RMK AO2 SLP162 T00940028 10172 20094 51020
Loading
Personal Weather Stations






























Interactive Weather Map New forecast layout! Learn more

10-Day Weather Forecast

Advertisements
Track Severe Weather on mobile